METAR Data
IDs: Format: Raw Decoded Include TAF

Data at: 0209 UTC 24 Oct 2019

METAR for:KOTM (Ottumwa Industrial, IA, US)
Text:KOTM 240153Z AUTO 33011KT 10SM CLR 06/03 A3003 RMK AO2 SLP174 T00610033
Temperature: 6.1°C ( 43°F)
Dewpoint: 3.3°C ( 38°F) [RH = 82%]
Pressure (altimeter):30.03 inches Hg (1017.0 mb) [Sea level pressure: 1017.4 mb]
Winds:from the NNW (330 degrees) at 13 MPH (11 knots; 5.7 m/s)
Visibility:10 or more sm (16+ km)
Ceiling:at least 12,000 feet AGL
Clouds:sky clear below 12,000 feet AGL
QC Flag:automated observation with no human augmentation